Time;durP1;ratioP1;P1;durP2;ratioP2;P2;SDS_P1;SDS_P2;PMS_P1;PMS_P2;Temp;Humidity;BMP_temperature;BMP_pressure;BME280_temperature;BME280_humidity;BME280_pressure;Samples;Min_cycle;Max_cycle;Signal;HPM_P1;HPM_P2
2022/05/20 00:01:07;;;;;;;;;0.67;0.67;;;;;20.65;47.11;101394.56;5024387;28;45173;-66
2022/05/20 00:03:34;;;;;;;;;0.67;0.67;;;;;20.59;46.65;101386.00;5026329;28;45380;-64
2022/05/20 00:06:00;;;;;;;;;2.00;0.00;;;;;20.58;46.62;101395.13;5034886;28;46167;-67
2022/05/20 00:08:27;;;;;;;;;1.25;1.25;;;;;20.52;46.76;101381.25;5024864;28;45485;-66
2022/05/20 00:10:53;;;;;;;;;1.00;1.00;;;;;20.53;46.57;101383.81;5034000;28;45382;-66
2022/05/20 00:13:23;;;;;;;;;3.50;0.25;;;;;20.52;46.06;101389.38;5035350;28;45558;-66
2022/05/20 00:15:49;;;;;;;;;1.00;1.00;;;;;20.52;46.33;101382.09;5036745;28;45366;-66
2022/05/20 00:18:15;;;;;;;;;1.00;1.00;;;;;20.44;46.36;101371.09;5033046;28;46121;-69
2022/05/20 00:20:40;;;;;;;;;1.67;1.00;;;;;20.49;46.54;101368.88;5014842;28;46126;-68
2022/05/20 00:23:06;;;;;;;;;1.00;0.67;;;;;20.44;46.48;101367.53;5016714;28;45350;-66
2022/05/20 00:25:46;;;;;;;;;1.00;1.00;;;;;20.48;46.59;101358.19;5022339;28;45434;-68
2022/05/20 00:28:20;;;;;;;;;1.00;1.00;;;;;20.44;46.41;101362.97;5015182;28;45347;-67
2022/05/20 00:30:50;;;;;;;;;1.00;1.00;;;;;20.44;46.39;101362.13;5021588;28;45308;-68
2022/05/20 00:33:16;;;;;;;;;1.00;1.00;;;;;20.37;46.33;101364.47;5034103;28;45400;-65
2022/05/20 00:35:42;;;;;;;;;0.33;0.33;;;;;20.38;46.68;101366.19;5036181;28;45504;-69
2022/05/20 00:38:08;;;;;;;;;1.00;1.00;;;;;20.43;46.59;101363.97;5034972;28;45481;-68
2022/05/20 00:40:34;;;;;;;;;1.50;1.50;;;;;20.50;46.38;101370.56;5023072;28;45362;-67
2022/05/20 00:43:24;;;;;;;;;1.00;1.00;;;;;20.50;46.26;101375.97;5032463;28;45378;-67
2022/05/20 00:45:51;;;;;;;;;1.67;1.67;;;;;20.49;46.53;101363.47;5035819;28;45767;-65
2022/05/20 00:48:17;;;;;;;;;1.00;1.00;;;;;20.48;46.67;101372.56;5023800;28;46339;-67
2022/05/20 00:50:48;;;;;;;;;0.33;0.33;;;;;20.45;46.68;101369.28;5038759;28;45417;-67
2022/05/20 00:53:18;;;;;;;;;1.00;1.00;;;;;20.47;46.30;101360.03;5037057;28;45520;-67
2022/05/20 00:55:44;;;;;;;;;0.00;0.00;;;;;20.45;45.93;101367.44;5033602;28;45402;-66
2022/05/20 00:58:14;;;;;;;;;1.00;1.00;;;;;20.43;45.64;101358.56;5029700;28;45474;-67
2022/05/20 01:00:44;;;;;;;;;1.00;1.00;;;;;20.40;45.60;101353.41;5017839;28;45414;-68
2022/05/20 01:03:13;;;;;;;;;2.00;1.00;;;;;20.38;45.17;101363.50;5024470;28;45346;-66
2022/05/20 01:05:44;;;;;;;;;1.00;1.00;;;;;20.43;45.76;101360.41;5025953;28;46122;-67
2022/05/20 01:08:13;;;;;;;;;1.50;1.50;;;;;20.40;45.25;101352.53;5033315;28;46310;-67
2022/05/20 01:10:39;;;;;;;;;1.00;1.00;;;;;20.42;45.45;101348.75;5017708;28;45486;-68
2022/05/20 01:13:04;;;;;;;;;1.00;1.00;;;;;20.40;45.21;101339.88;5024018;28;45314;-66
2022/05/20 01:15:30;;;;;;;;;1.67;1.00;;;;;20.41;45.02;101341.59;5026653;28;45625;-66
2022/05/20 01:17:58;;;;;;;;;0.67;0.67;;;;;20.44;45.08;101327.00;5016311;28;47566;-66
2022/05/20 01:20:27;;;;;;;;;3.33;3.33;;;;;20.45;44.24;101323.34;5016039;28;45296;-67
2022/05/20 01:22:56;;;;;;;;;0.33;0.33;;;;;20.45;44.47;101318.78;5033082;28;45379;-66
2022/05/20 01:25:23;;;;;;;;;1.50;0.50;;;;;20.38;44.01;101314.84;5032476;28;45669;-67
2022/05/20 01:27:49;;;;;;;;;1.00;1.00;;;;;20.37;44.36;101305.03;5037682;28;45339;-67
2022/05/20 01:30:18;;;;;;;;;0.00;0.00;;;;;20.45;44.25;101297.19;5028020;28;45222;-67
2022/05/20 01:32:44;;;;;;;;;3.00;2.00;;;;;20.40;44.56;101291.25;5023250;28;45683;-68
2022/05/20 01:35:20;;;;;;;;;2.00;1.00;;;;;20.41;44.50;101301.06;5046847;28;45284;-65
2022/05/20 01:37:45;;;;;;;;;1.67;1.00;;;;;20.38;44.57;101293.25;5037040;28;45996;-65
2022/05/20 01:40:11;;;;;;;;;1.67;1.00;;;;;20.37;44.24;101287.97;5037117;28;45386;-65
2022/05/20 01:42:48;;;;;;;;;0.00;0.00;;;;;20.35;44.63;101289.97;5032524;28;45438;-66
2022/05/20 01:45:28;;;;;;;;;1.00;1.00;;;;;20.31;44.92;101289.34;5024523;28;45636;-67
2022/05/20 01:48:30;;;;;;;;;1.00;1.00;;;;;20.30;44.78;101283.09;5036419;28;46312;-66
2022/05/20 01:50:55;;;;;;;;;2.00;2.00;;;;;20.23;44.93;101271.13;5028097;28;45477;-66
2022/05/20 01:53:37;;;;;;;;;3.00;3.00;;;;;20.13;45.05;101269.31;5031984;28;45485;-66
2022/05/20 01:56:12;;;;;;;;;3.00;1.00;;;;;20.10;45.38;101280.41;5036324;28;45545;-67
2022/05/20 01:58:54;;;;;;;;;1.33;1.00;;;;;20.02;45.45;101271.09;5032127;28;45470;-68
2022/05/20 02:01:33;;;;;;;;;3.00;0.00;;;;;20.08;45.49;101277.84;5038655;28;45338;-65
2022/05/20 02:04:17;;;;;;;;;2.00;0.33;;;;;20.11;45.60;101272.16;5032040;28;45477;-66
2022/05/20 02:06:50;;;;;;;;;1.33;1.00;;;;;20.09;45.49;101262.47;5018007;28;45347;-65
2022/05/20 02:09:22;;;;;;;;;0.00;0.00;;;;;20.01;45.66;101265.81;5033138;28;45418;-67
2022/05/20 02:11:51;;;;;;;;;0.33;0.33;;;;;20.04;45.58;101271.81;5041983;28;45336;-67
2022/05/20 02:14:21;;;;;;;;;2.67;2.00;;;;;20.08;45.48;101255.38;5032302;28;45430;-67
2022/05/20 02:16:58;;;;;;;;;1.00;1.00;;;;;20.06;46.14;101249.25;5037088;28;45315;-65
2022/05/20 02:19:29;;;;;;;;;1.00;1.00;;;;;20.07;45.75;101250.97;5031957;28;45565;-67
2022/05/20 02:21:57;;;;;;;;;3.00;3.00;;;;;20.05;45.75;101248.38;5035570;28;45326;-67
2022/05/20 02:24:28;;;;;;;;;5.67;1.33;;;;;19.92;46.03;101245.88;5025138;28;45660;-68
2022/05/20 02:26:59;;;;;;;;;1.67;1.67;;;;;19.90;45.90;101244.28;5019954;28;45597;-71
2022/05/20 02:29:34;;;;;;;;;4.00;1.00;;;;;19.90;46.29;101252.38;5024090;28;46173;-67
2022/05/20 02:32:14;;;;;;;;;2.33;2.33;;;;;19.83;46.80;101260.16;5036119;28;45334;-68
2022/05/20 02:34:40;;;;;;;;;1.67;1.67;;;;;19.86;46.79;101241.00;5035207;28;45412;-67
2022/05/20 02:37:24;;;;;;;;;3.00;2.00;;;;;19.87;47.03;101236.44;5035464;28;45572;-65
2022/05/20 02:39:49;;;;;;;;;0.00;0.00;;;;;19.92;46.98;101242.31;5015516;28;45192;-66
2022/05/20 02:42:15;;;;;;;;;3.67;3.00;;;;;19.93;47.08;101244.91;5022381;28;45525;-66
2022/05/20 02:44:41;;;;;;;;;1.00;1.00;;;;;19.87;47.13;101231.91;5031233;28;46029;-66
2022/05/20 02:47:06;;;;;;;;;1.00;1.00;;;;;19.95;47.13;101221.31;5051392;28;45671;-66
2022/05/20 02:49:32;;;;;;;;;1.33;0.00;;;;;19.88;47.54;101224.66;5036349;28;46233;-66
2022/05/20 02:51:58;;;;;;;;;2.00;2.00;;;;;19.82;48.14;101234.16;5035732;28;45502;-65
2022/05/20 02:54:23;;;;;;;;;2.33;2.33;;;;;19.69;48.41;101241.56;5025762;28;45390;-67
2022/05/20 02:56:48;;;;;;;;;2.33;2.33;;;;;19.63;48.52;101228.56;5016077;28;45651;-67
2022/05/20 03:04:48;;;;;;;;;3.00;3.00;;;;;19.55;48.94;101240.03;5031061;28;45413;-67
2022/05/20 03:07:13;;;;;;;;;2.00;2.00;;;;;19.57;49.15;101243.44;5037243;28;45545;-69
2022/05/20 03:09:39;;;;;;;;;2.00;2.00;;;;;19.59;49.27;101237.91;5035094;28;45507;-66
2022/05/20 03:12:06;;;;;;;;;2.67;1.33;;;;;19.67;49.37;101235.44;5036143;28;45489;-69
2022/05/20 03:14:32;;;;;;;;;2.00;2.00;;;;;19.61;49.36;101226.00;5034726;28;45558;-67
2022/05/20 03:17:02;;;;;;;;;2.00;2.00;;;;;19.65;49.37;101232.84;5027736;28;45532;-66
2022/05/20 03:19:31;;;;;;;;;1.67;1.67;;;;;19.57;49.69;101234.50;5020001;28;49200;-67
2022/05/20 03:22:01;;;;;;;;;2.00;1.33;;;;;19.57;49.77;101232.66;5033823;28;45367;-66
2022/05/20 03:24:28;;;;;;;;;3.67;2.67;;;;;19.56;49.94;101233.66;5035081;28;45410;-66
2022/05/20 03:26:54;;;;;;;;;2.33;2.33;;;;;19.56;50.16;101238.19;5035857;28;45308;-67
2022/05/20 03:29:19;;;;;;;;;4.00;1.33;;;;;19.52;50.18;101232.13;5034085;28;45401;-66
2022/05/20 03:31:46;;;;;;;;;2.00;2.00;;;;;19.55;50.31;101231.94;5015510;28;45323;-67
2022/05/20 03:34:12;;;;;;;;;4.67;1.00;;;;;19.45;50.83;101223.72;5027984;28;45312;-66
2022/05/20 03:36:40;;;;;;;;;1.33;1.33;;;;;19.51;50.91;101229.56;5027819;28;45593;-66
2022/05/20 03:39:07;;;;;;;;;1.33;1.00;;;;;19.56;50.91;101235.50;5035566;28;46421;-66
2022/05/20 03:41:33;;;;;;;;;1.33;1.33;;;;;19.49;50.60;101223.44;5030254;28;45461;-66
2022/05/20 03:43:58;;;;;;;;;1.33;1.33;;;;;19.50;51.00;101227.84;5015730;28;45517;-67
2022/05/20 03:46:24;;;;;;;;;4.00;2.67;;;;;19.49;51.05;101221.59;5019791;28;45484;-67
2022/05/20 03:48:50;;;;;;;;;2.00;2.00;;;;;19.51;51.34;101213.38;5035644;28;45311;-68
2022/05/20 03:51:16;;;;;;;;;5.00;3.00;;;;;19.45;51.69;101204.81;5032969;28;45518;-68
2022/05/20 03:53:42;;;;;;;;;2.33;2.33;;;;;19.40;51.62;101207.06;5021980;28;45457;-67
2022/05/20 03:56:08;;;;;;;;;2.00;2.00;;;;;19.45;51.73;101204.81;5036263;27;45603;-67
2022/05/20 03:58:34;;;;;;;;;2.67;2.00;;;;;19.36;51.79;101189.41;5035257;28;45415;-67
2022/05/20 04:03:46;;;;;;;;;3.00;2.00;;;;;19.36;52.41;101202.88;5035203;28;45372;-67
2022/05/20 04:06:13;;;;;;;;;3.00;3.00;;;;;19.34;52.11;101199.47;5033901;28;45516;-69
2022/05/20 04:08:39;;;;;;;;;2.33;2.33;;;;;19.31;52.48;101199.72;5033882;28;45934;-67
2022/05/20 04:11:06;;;;;;;;;2.33;2.33;;;;;19.31;52.67;101204.25;5031738;28;45592;-67
2022/05/20 04:13:33;;;;;;;;;3.67;3.00;;;;;19.25;52.73;101197.53;5046035;28;45295;-67
2022/05/20 04:15:58;;;;;;;;;2.00;2.00;;;;;19.20;52.45;101188.13;5039106;28;45544;-68
2022/05/20 04:18:24;;;;;;;;;5.00;3.33;;;;;19.25;52.80;101185.88;5037152;28;46367;-71
2022/05/20 04:20:50;;;;;;;;;1.00;1.00;;;;;19.29;53.00;101188.22;5038203;28;45426;-67
2022/05/20 04:23:18;;;;;;;;;5.67;2.33;;;;;19.31;52.90;101202.44;5039019;28;45391;-67
2022/05/20 04:25:47;;;;;;;;;3.00;3.00;;;;;19.33;52.71;101200.44;5038808;28;45421;-65
2022/05/20 04:28:13;;;;;;;;;3.67;3.00;;;;;19.33;52.49;101200.44;5036307;28;47205;-68
2022/05/20 04:30:39;;;;;;;;;2.00;2.00;;;;;19.29;52.98;101212.50;5026012;28;45321;-66
2022/05/20 04:33:04;;;;;;;;;4.00;4.00;;;;;19.30;53.05;101211.50;5018436;28;45483;-67
2022/05/20 04:35:30;;;;;;;;;5.00;3.00;;;;;19.35;53.10;101209.28;5031881;28;45490;-67
2022/05/20 04:37:55;;;;;;;;;4.00;4.00;;;;;19.32;53.09;101201.44;5038138;28;46416;-67
2022/05/20 04:40:21;;;;;;;;;4.00;2.67;;;;;19.34;53.10;101204.00;5036268;28;45237;-68
2022/05/20 04:48:14;;;;;;;;;3.67;3.67;;;;;19.49;52.78;101205.41;5038929;28;45798;-66
2022/05/20 04:50:40;;;;;;;;;1.00;1.00;;;;;19.61;52.51;101225.16;5055894;28;45641;-67
2022/05/20 04:53:06;;;;;;;;;4.33;4.00;;;;;19.66;52.49;101213.00;5018893;28;45511;-67
2022/05/20 04:55:32;;;;;;;;;4.00;4.00;;;;;19.75;52.39;101222.16;5034914;28;45406;-67
2022/05/20 04:57:58;;;;;;;;;4.00;4.00;;;;;19.77;52.37;101230.97;5018657;28;45340;-67
2022/05/20 05:00:27;;;;;;;;;4.00;4.00;;;;;19.81;52.22;101227.03;5032657;28;46105;-68
2022/05/20 05:02:53;;;;;;;;;8.00;4.00;;;;;19.84;52.38;101217.81;5024701;28;45401;-68
2022/05/20 05:05:22;;;;;;;;;4.67;4.00;;;;;19.90;52.39;101225.38;5029280;28;45459;-68
2022/05/20 05:07:50;;;;;;;;;6.67;4.00;;;;;19.94;52.34;101222.31;5027007;28;46081;-67
2022/05/20 05:10:21;;;;;;;;;4.33;3.67;;;;;19.96;52.49;101219.47;5039738;28;45567;-65
2022/05/20 05:12:47;;;;;;;;;5.33;4.00;;;;;19.98;52.25;101223.75;5011001;28;45461;-66
2022/05/20 05:15:13;;;;;;;;;7.33;5.00;;;;;19.94;52.46;101224.16;5042267;28;45524;-63
2022/05/20 05:20:25;;;;;;;;;4.00;4.00;;;;;19.83;53.21;101224.22;5037649;28;45378;-61
2022/05/20 05:22:52;;;;;;;;;4.00;4.00;;;;;19.77;53.63;101227.41;5031591;28;45478;-62
2022/05/20 05:25:22;;;;;;;;;4.00;4.00;;;;;19.78;53.65;101231.81;5042160;28;45512;-60
2022/05/20 05:27:48;;;;;;;;;6.00;4.67;;;;;19.73;53.92;101219.56;5035647;28;45383;-61
2022/05/20 05:30:14;;;;;;;;;3.00;3.00;;;;;19.72;54.19;101217.00;5039194;28;46029;-63
2022/05/20 05:32:41;;;;;;;;;4.00;4.00;;;;;19.73;54.04;101216.03;5036077;28;45382;-63
2022/05/20 05:35:09;;;;;;;;;6.33;4.00;;;;;19.68;54.03;101207.47;5030525;28;45887;-63
2022/05/20 05:37:37;;;;;;;;;6.00;4.00;;;;;19.65;54.57;101199.63;5017155;28;45771;-61
2022/05/20 05:40:03;;;;;;;;;2.67;2.67;;;;;19.69;54.44;101195.69;5025914;28;45512;-65
2022/05/20 05:42:29;;;;;;;;;4.67;4.00;;;;;19.68;54.09;101199.38;5037523;28;45446;-64
2022/05/20 05:44:55;;;;;;;;;5.67;3.00;;;;;19.60;54.54;101196.47;5036423;28;45518;-62
2022/05/20 05:47:21;;;;;;;;;7.67;5.00;;;;;19.63;54.41;101202.44;5036970;28;46784;-62
2022/05/20 05:49:46;;;;;;;;;4.67;3.33;;;;;19.63;54.91;101197.06;5032297;28;45275;-61
2022/05/20 05:52:12;;;;;;;;;4.67;4.00;;;;;19.62;54.76;101178.28;5017381;28;45242;-62
2022/05/20 05:54:37;;;;;;;;;4.00;4.00;;;;;19.68;54.73;101172.41;5024420;28;45545;-63
2022/05/20 05:57:03;;;;;;;;;12.33;11.00;;;;;19.77;55.20;101165.34;5040088;28;45585;-65
2022/05/20 05:59:31;;;;;;;;;7.00;5.33;;;;;19.74;55.60;101155.66;5028148;28;45529;-62
2022/05/20 06:02:00;;;;;;;;;5.33;5.33;;;;;19.76;56.04;101142.88;5037239;28;45318;-63
2022/05/20 06:04:26;;;;;;;;;5.00;4.67;;;;;19.81;56.06;101159.56;5035409;28;45462;-62
2022/05/20 06:06:52;;;;;;;;;7.00;4.00;;;;;19.83;55.97;101189.13;5034249;28;46299;-62
2022/05/20 06:09:18;;;;;;;;;5.00;4.00;;;;;19.85;56.43;101188.00;5037611;28;45472;-64
2022/05/20 06:11:43;;;;;;;;;6.00;4.67;;;;;19.82;56.77;101196.34;5024431;28;45511;-67
2022/05/20 06:14:09;;;;;;;;;6.00;5.00;;;;;19.79;58.12;101202.00;5032765;28;45395;-62
2022/05/20 06:16:34;;;;;;;;;5.33;5.33;;;;;19.74;57.29;101215.03;5035634;28;45459;-66
2022/05/20 06:19:00;;;;;;;;;7.00;6.00;;;;;19.72;58.90;101207.06;5024151;28;45501;-65
2022/05/20 06:21:26;;;;;;;;;7.00;5.00;;;;;19.72;60.74;101200.81;5057254;28;45416;-67
2022/05/20 06:23:52;;;;;;;;;7.00;5.00;;;;;19.64;61.18;101204.16;5035080;28;45484;-67
2022/05/20 06:26:18;;;;;;;;;9.67;7.67;;;;;19.64;64.67;101193.38;5023849;28;46092;-64
2022/05/20 06:28:44;;;;;;;;;8.00;8.00;;;;;19.55;63.54;101166.31;5036478;28;45422;-67
2022/05/20 06:31:11;;;;;;;;;8.00;6.00;;;;;19.49;64.77;101137.97;5046913;28;45300;-65
2022/05/20 06:33:36;;;;;;;;;9.00;7.00;;;;;19.42;63.37;101077.47;5048813;28;45632;-67
2022/05/20 06:41:30;;;;;;;;;7.00;5.00;;;;;19.42;62.79;101107.97;5015804;28;45513;-69
2022/05/20 06:43:55;;;;;;;;;6.33;6.33;;;;;19.41;63.41;101125.16;5027857;28;45761;-65
2022/05/20 06:46:21;;;;;;;;;7.33;7.33;;;;;19.47;61.99;101139.09;5033518;28;46053;-65
2022/05/20 06:48:50;;;;;;;;;7.00;7.00;;;;;19.49;62.24;101156.00;5038528;28;45688;-66
2022/05/20 06:51:19;;;;;;;;;8.00;7.67;;;;;19.50;62.71;101147.78;5020248;28;45494;-65
2022/05/20 06:53:45;;;;;;;;;8.67;7.00;;;;;19.53;62.96;101119.69;5036020;28;45473;-65
2022/05/20 06:56:12;;;;;;;;;8.00;5.33;;;;;19.50;63.56;101072.25;5018934;28;45359;-66
2022/05/20 06:58:38;;;;;;;;;8.33;7.00;;;;;19.54;64.17;101018.91;5030132;28;45751;-66
2022/05/20 07:01:05;;;;;;;;;9.00;8.00;;;;;19.48;65.14;100960.06;5028547;28;45232;-66
2022/05/20 07:03:32;;;;;;;;;9.00;9.00;;;;;19.45;64.18;100939.63;5018603;28;45647;-67
2022/05/20 07:05:57;;;;;;;;;10.00;10.00;;;;;19.49;64.41;100945.59;5019422;28;45481;-65
2022/05/20 07:08:24;;;;;;;;;9.00;9.00;;;;;19.52;64.47;100923.72;5025681;28;45683;-68
2022/05/20 07:10:49;;;;;;;;;8.00;8.00;;;;;19.54;63.72;100932.56;5033648;28;45489;-69
2022/05/20 07:13:15;;;;;;;;;9.00;7.33;;;;;19.55;64.20;100915.44;5027162;28;45579;-68
2022/05/20 07:15:40;;;;;;;;;9.00;7.67;;;;;19.52;64.25;100918.34;5022022;28;46182;-68
2022/05/20 07:18:06;;;;;;;;;7.67;7.33;;;;;19.61;63.87;100939.16;5022236;28;46008;-67
2022/05/20 07:20:31;;;;;;;;;9.33;6.00;;;;;19.69;63.69;100937.50;5019852;28;45624;-68
2022/05/20 07:22:57;;;;;;;;;9.67;7.00;;;;;19.79;63.27;100944.75;5020447;28;45754;-66
2022/05/20 07:25:22;;;;;;;;;7.00;7.00;;;;;19.86;63.24;100943.22;5025105;28;45454;-68
2022/05/20 07:27:47;;;;;;;;;9.00;8.00;;;;;20.06;62.95;100966.59;5024717;28;45469;-67
2022/05/20 07:30:15;;;;;;;;;8.67;8.67;;;;;20.12;62.09;100981.38;5028315;28;46643;-70
2022/05/20 07:32:40;;;;;;;;;8.00;7.00;;;;;20.14;62.31;100992.91;5019271;28;45545;-71
2022/05/20 07:35:06;;;;;;;;;9.33;8.00;;;;;20.15;62.93;100964.91;5024004;28;45395;-72
2022/05/20 07:37:32;;;;;;;;;14.33;11.33;;;;;20.28;62.49;100973.59;5020043;28;45402;-70
2022/05/20 07:39:57;;;;;;;;;9.00;9.00;;;;;20.36;62.95;101002.63;5024375;28;45427;-70
2022/05/20 07:42:23;;;;;;;;;11.67;8.33;;;;;20.41;63.83;100998.50;5016936;28;45693;-73
2022/05/20 07:44:49;;;;;;;;;14.00;11.00;;;;;20.36;63.63;101008.88;5018571;28;46150;-71
2022/05/20 07:47:14;;;;;;;;;12.33;11.00;;;;;20.33;62.50;101026.22;5019790;28;45558;-68
2022/05/20 07:49:40;;;;;;;;;9.33;8.00;;;;;20.40;62.20;101067.03;5027281;28;45493;-68
2022/05/20 07:52:10;;;;;;;;;14.33;12.00;;;;;20.44;63.02;101089.25;5018029;28;45510;-67
2022/05/20 07:54:40;;;;;;;;;8.00;8.00;;;;;20.39;62.40;101099.59;5027463;28;45379;-68
2022/05/20 07:57:13;;;;;;;;;15.33;14.00;;;;;20.36;64.23;101129.59;5030815;28;45394;-71
2022/05/20 07:59:53;;;;;;;;;10.67;10.00;;;;;20.26;63.82;101138.50;5037049;28;45580;-68
2022/05/20 08:02:22;;;;;;;;;7.33;6.00;;;;;20.26;64.96;101070.97;5035013;28;45364;-68
2022/05/20 08:05:00;;;;;;;;;15.00;13.67;;;;;20.22;66.29;101085.75;5034896;28;46912;-68
2022/05/20 08:07:34;;;;;;;;;11.33;11.33;;;;;20.18;67.73;101059.13;5033556;28;45239;-72
2022/05/20 08:10:05;;;;;;;;;16.00;15.67;;;;;20.13;65.82;101070.34;5023612;28;46917;-69
2022/05/20 08:12:30;;;;;;;;;12.33;11.00;;;;;20.12;67.66;101054.28;5037029;28;45620;-70
2022/05/20 08:14:56;;;;;;;;;14.33;11.67;;;;;20.13;67.66;101032.53;5036558;28;46604;-70
2022/05/20 08:17:26;;;;;;;;;14.00;10.33;;;;;20.12;67.38;101025.44;5020625;28;45481;-71
2022/05/20 08:19:54;;;;;;;;;10.67;10.67;;;;;20.12;67.69;101024.59;5025084;28;45170;-75
2022/05/20 08:22:24;;;;;;;;;14.67;14.00;;;;;20.11;68.24;101026.44;5044995;28;45640;-71
2022/05/20 08:24:54;;;;;;;;;13.67;12.67;;;;;20.12;67.52;101052.44;5030863;28;45513;-66
2022/05/20 08:27:22;;;;;;;;;16.67;14.33;;;;;20.09;68.16;101038.38;5019043;28;45760;-73
2022/05/20 08:29:49;;;;;;;;;15.67;15.67;;;;;20.04;67.96;101017.16;5031757;28;45406;-69
2022/05/20 08:32:15;;;;;;;;;16.33;14.00;;;;;20.00;67.66;101027.38;5026651;28;45541;-65
2022/05/20 08:34:45;;;;;;;;;22.67;17.67;;;;;20.03;69.75;101037.91;5017760;28;45283;-72
2022/05/20 08:37:11;;;;;;;;;20.00;14.33;;;;;20.02;68.66;101038.91;5030268;28;45458;-69
2022/05/20 08:39:37;;;;;;;;;18.00;16.67;;;;;19.99;76.87;101032.91;5008259;28;45504;-72
2022/05/20 08:42:05;;;;;;;;;16.67;15.67;;;;;19.97;70.33;101087.06;5048524;28;45687;-65
2022/05/20 08:44:33;;;;;;;;;14.67;12.00;;;;;19.94;72.80;101135.91;5036451;28;47279;-68
2022/05/20 08:47:13;;;;;;;;;17.00;14.67;;;;;19.84;70.75;101201.63;5041652;28;45687;-65
2022/05/20 08:49:39;;;;;;;;;16.00;15.33;;;;;19.83;69.53;101214.25;5034078;28;45509;-69
2022/05/20 08:52:05;;;;;;;;;17.33;16.67;;;;;19.82;69.86;101185.56;5032042;28;45477;-74
2022/05/20 08:54:31;;;;;;;;;25.00;18.33;;;;;19.72;73.12;101133.34;5035136;28;45486;-74
2022/05/20 08:56:58;;;;;;;;;22.33;16.67;;;;;19.53;75.86;101143.97;5018011;28;45670;-73
2022/05/20 08:59:23;;;;;;;;;23.00;18.00;;;;;19.45;76.35;101096.94;5035258;28;45295;-73
2022/05/20 09:01:51;;;;;;;;;20.33;18.67;;;;;19.42;76.66;101053.19;5046095;28;45756;-72
2022/05/20 09:04:21;;;;;;;;;21.00;18.67;;;;;19.42;75.18;101070.22;5036043;28;45481;-67
2022/05/20 09:07:10;;;;;;;;;20.67;19.33;;;;;19.52;73.03;101074.81;5041970;28;45530;-66
2022/05/20 09:09:53;;;;;;;;;18.33;17.67;;;;;19.61;73.89;101079.44;5042666;28;45494;-69
2022/05/20 09:12:39;;;;;;;;;22.33;22.33;;;;;19.63;72.71;101053.19;5048061;28;45388;-67
2022/05/20 09:18:18;;;;;;;;;16.33;16.00;;;;;19.65;72.84;101070.94;5057370;28;45436;-71
2022/05/20 09:20:52;;;;;;;;;21.33;20.00;;;;;19.55;73.19;101061.09;5039916;28;45263;-70
2022/05/20 09:23:23;;;;;;;;;21.00;17.00;;;;;19.69;73.75;101063.47;5050757;28;45372;-73
2022/05/20 09:26:02;;;;;;;;;22.33;20.67;;;;;19.84;73.03;101050.47;5037047;28;46041;-71
2022/05/20 09:28:45;;;;;;;;;23.33;20.67;;;;;19.99;71.46;101044.56;5025928;28;45243;-70
2022/05/20 09:31:38;;;;;;;;;22.33;20.33;;;;;20.18;71.71;101024.91;5016327;28;45363;-69
2022/05/20 09:34:19;;;;;;;;;17.67;16.67;;;;;20.36;71.26;101030.50;5017899;28;45318;-68
2022/05/20 09:36:55;;;;;;;;;25.00;22.00;;;;;20.37;70.80;101086.22;5017439;28;46323;-74
2022/05/20 09:39:27;;;;;;;;;20.67;19.67;;;;;20.11;72.10;101174.09;5015799;28;45387;-69
2022/05/20 09:41:58;;;;;;;;;22.33;20.00;;;;;19.99;70.86;101257.84;5028981;28;45490;-67
2022/05/20 09:44:32;;;;;;;;;19.67;17.33;;;;;19.90;70.88;101183.03;5037476;28;45441;-69
2022/05/20 09:47:10;;;;;;;;;25.67;22.00;;;;;20.03;85.64;100989.31;5036386;28;46016;-75
2022/05/20 09:49:52;;;;;;;;;25.33;25.33;;;;;19.73;99.70;100954.25;5043726;28;45527;-71
2022/05/20 09:52:52;;;;;;;;;22.67;21.67;;;;;19.17;96.62;101024.75;5039398;28;45330;-71
2022/05/20 09:55:29;;;;;;;;;28.33;25.00;;;;;19.37;97.31;101002.31;5039498;28;45371;-67
2022/05/20 09:57:56;;;;;;;;;34.33;30.67;;;;;19.55;94.24;100970.25;5039793;28;46124;-68
2022/05/20 10:00:32;;;;;;;;;30.00;26.00;;;;;19.78;92.98;100941.19;5040961;28;45418;-71
2022/05/20 10:02:58;;;;;;;;;27.33;27.00;;;;;20.01;90.07;100926.50;5053636;28;45408;-71
2022/05/20 10:05:23;;;;;;;;;31.00;27.67;;;;;20.22;86.15;100934.50;5040370;28;45247;-67
2022/05/20 10:08:06;;;;;;;;;32.00;31.33;;;;;20.25;83.89;100934.22;5040596;28;46063;-70
2022/05/20 10:10:37;;;;;;;;;23.00;22.00;;;;;20.38;82.06;100944.75;5041696;28;45314;-70
2022/05/20 10:13:07;;;;;;;;;30.00;27.00;;;;;20.48;84.02;100950.22;5039061;28;45474;-70
2022/05/20 10:15:41;;;;;;;;;29.67;28.67;;;;;20.38;81.05;100939.34;5039591;28;45615;-71
2022/05/20 10:18:24;;;;;;;;;29.33;28.67;;;;;20.44;80.19;100964.97;5038185;28;46732;-68
2022/05/20 10:21:15;;;;;;;;;33.00;30.67;;;;;20.47;79.57;100987.19;5036856;28;45351;-66
2022/05/20 10:24:09;;;;;;;;;35.33;32.33;;;;;20.51;79.52;101001.25;5038057;28;45414;-67
2022/05/20 10:26:56;;;;;;;;;30.67;27.67;;;;;20.48;78.42;101032.13;5039384;28;45368;-70
2022/05/20 10:32:53;;;;;;;;;27.67;27.67;;;;;20.60;79.38;101011.22;5041719;28;45172;-72
2022/05/20 10:35:25;;;;;;;;;29.67;27.67;;;;;20.68;78.06;100992.44;5042300;28;45351;-67
2022/05/20 10:38:15;;;;;;;;;31.67;25.33;;;;;20.75;78.04;100980.09;5039606;28;45414;-69
2022/05/20 10:40:50;;;;;;;;;30.67;29.33;;;;;20.87;77.36;100978.09;5041231;28;45809;-67
2022/05/20 10:43:29;;;;;;;;;32.67;28.67;;;;;20.97;76.07;100968.13;5037560;28;45406;-70
2022/05/20 10:49:35;;;;;;;;;26.00;26.00;;;;;21.33;74.39;100958.41;5038364;28;45323;-68
2022/05/20 10:52:00;;;;;;;;;36.00;30.67;;;;;21.47;73.41;100966.03;5037486;28;45616;-68
2022/05/20 10:54:58;;;;;;;;;30.00;27.33;;;;;21.62;73.39;100941.25;5037201;28;45452;-65
2022/05/20 10:57:41;;;;;;;;;31.00;30.33;;;;;21.79;72.65;100965.66;5036267;28;45311;-66
2022/05/20 11:00:20;;;;;;;;;34.33;29.67;;;;;21.94;72.36;100966.00;5037440;28;45267;-67
2022/05/20 11:03:17;;;;;;;;;31.67;29.33;;;;;22.07;71.00;100962.97;5039027;28;45479;-71
2022/05/20 11:05:57;;;;;;;;;26.67;26.67;;;;;22.15;70.60;100970.38;5038132;28;45390;-67
2022/05/20 11:08:34;;;;;;;;;32.67;31.67;;;;;22.28;72.24;100969.00;5037774;28;45397;-66
2022/05/20 11:11:11;;;;;;;;;33.67;31.00;;;;;22.43;70.23;100977.44;5037732;28;45336;-69
2022/05/20 11:14:04;;;;;;;;;32.67;31.00;;;;;22.48;70.59;101001.38;5035286;28;45534;-67
2022/05/20 11:17:07;;;;;;;;;31.67;30.00;;;;;22.51;71.14;101007.31;5037108;28;45200;-66
2022/05/20 11:19:47;;;;;;;;;34.67;32.00;;;;;22.55;71.43;101016.03;5037094;28;45397;-74
2022/05/20 11:22:42;;;;;;;;;35.00;29.67;;;;;22.52;71.05;101029.88;5037181;28;45484;-70
2022/05/20 11:25:31;;;;;;;;;34.00;30.33;;;;;22.49;71.59;101039.16;5035179;28;47949;-66
2022/05/20 11:27:59;;;;;;;;;34.67;30.33;;;;;22.55;71.70;101049.41;5037081;28;45269;-72
2022/05/20 11:30:32;;;;;;;;;28.00;28.00;;;;;22.66;71.03;101045.63;5036474;28;45272;-68
2022/05/20 11:33:28;;;;;;;;;28.00;25.67;;;;;22.78;70.78;101036.25;5036390;28;45297;-66
2022/05/20 11:36:07;;;;;;;;;32.00;26.67;;;;;23.03;70.37;101031.09;5034699;28;47427;-67
2022/05/20 11:38:55;;;;;;;;;27.67;25.00;;;;;23.21;69.58;101024.66;5034665;28;45412;-67
2022/05/20 11:41:31;;;;;;;;;25.67;24.00;;;;;23.45;69.59;101015.84;5035321;28;45421;-67
2022/05/20 11:44:41;;;;;;;;;32.33;30.33;;;;;23.72;68.71;101014.84;5033509;28;45511;-67
2022/05/20 11:47:12;;;;;;;;;20.67;20.67;;;;;23.86;67.50;101007.97;5030955;28;45537;-67
2022/05/20 11:49:55;;;;;;;;;29.33;26.67;;;;;24.02;66.48;101001.75;5035887;28;45229;-68
2022/05/20 11:52:32;;;;;;;;;26.50;25.00;;;;;24.18;67.01;101000.97;5034435;28;45433;-67
2022/05/20 11:55:12;;;;;;;;;30.33;25.67;;;;;24.39;66.40;101004.13;5035907;28;45335;-66
2022/05/20 11:57:49;;;;;;;;;28.33;25.33;;;;;24.56;65.95;100994.16;5035750;28;46493;-70
2022/05/20 12:00:19;;;;;;;;;35.33;31.00;;;;;24.54;65.46;100986.16;5035828;28;45416;-68
2022/05/20 12:03:07;;;;;;;;;29.00;26.67;;;;;24.34;64.52;100973.88;5036563;28;45255;-70
2022/05/20 12:05:39;;;;;;;;;27.00;27.00;;;;;23.95;65.45;100963.50;5036465;28;45456;-69
2022/05/20 12:08:04;;;;;;;;;24.00;23.00;;;;;24.15;65.99;100966.81;5035568;28;45315;-69